Terminal Aerodrome Forecast
Issued by NWS

Home | Current Version | Previous Version | Text Only | Print | Product List | Glossary On
Versions: 1 2 3 4 5 6 7 8 9 10 11 12 13 14
668
FTUS45 KABQ 300950 AAB
TAFSAF
TAF AMD
KSAF 300950Z 3010/3106 13015G22KT P6SM SCT025 SCT140
     FM301600 15010KT P6SM FEW040 FEW150
     FM301900 22012G20KT P6SM SCT150
     FM310200 12010KT P6SM BKN120=

USA.gov is the U.S. government's official web portal to all federal, state and local government web resources and services.